sensor_id;sensor_type;location;lat;lon;timestamp;temperature;humidity
62259;DHT22;48241;48.824;10.102;2022-09-09T00:02:20;16.60;79.40
62259;DHT22;48241;48.824;10.102;2022-09-09T00:12:48;16.40;81.90
62259;DHT22;48241;48.824;10.102;2022-09-09T00:15:29;16.20;81.80
62259;DHT22;48241;48.824;10.102;2022-09-09T00:18:17;16.30;79.50
62259;DHT22;48241;48.824;10.102;2022-09-09T00:20:52;16.40;80.40
62259;DHT22;48241;48.824;10.102;2022-09-09T00:25:56;16.50;83.10
62259;DHT22;48241;48.824;10.102;2022-09-09T00:28:26;16.50;82.70
62259;DHT22;48241;48.824;10.102;2022-09-09T00:30:52;16.70;79.70
62259;DHT22;48241;48.824;10.102;2022-09-09T00:33:22;16.60;76.60
62259;DHT22;48241;48.824;10.102;2022-09-09T00:35:54;16.50;80.00
62259;DHT22;48241;48.824;10.102;2022-09-09T00:38:34;16.60;78.20
62259;DHT22;48241;48.824;10.102;2022-09-09T00:43:38;16.60;80.00
62259;DHT22;48241;48.824;10.102;2022-09-09T00:46:40;16.70;77.70
62259;DHT22;48241;48.824;10.102;2022-09-09T00:54:27;16.80;80.50
62259;DHT22;48241;48.824;10.102;2022-09-09T00:57:14;16.70;80.20
62259;DHT22;48241;48.824;10.102;2022-09-09T00:59:47;16.80;79.40
62259;DHT22;48241;48.824;10.102;2022-09-09T01:08:19;16.70;79.00
62259;DHT22;48241;48.824;10.102;2022-09-09T01:10:53;16.80;81.40
62259;DHT22;48241;48.824;10.102;2022-09-09T01:13:25;16.80;82.00
62259;DHT22;48241;48.824;10.102;2022-09-09T01:15:53;16.90;78.80
62259;DHT22;48241;48.824;10.102;2022-09-09T01:18:29;16.80;79.10
62259;DHT22;48241;48.824;10.102;2022-09-09T01:26:28;16.80;77.80
62259;DHT22;48241;48.824;10.102;2022-09-09T01:28:55;16.80;77.90
62259;DHT22;48241;48.824;10.102;2022-09-09T01:31:31;16.60;77.60
62259;DHT22;48241;48.824;10.102;2022-09-09T01:33:58;16.70;78.00
62259;DHT22;48241;48.824;10.102;2022-09-09T01:36:35;16.70;76.30
62259;DHT22;48241;48.824;10.102;2022-09-09T01:39:04;16.70;79.90
62259;DHT22;48241;48.824;10.102;2022-09-09T01:41:30;16.60;77.50
62259;DHT22;48241;48.824;10.102;2022-09-09T01:43:56;16.70;79.70
62259;DHT22;48241;48.824;10.102;2022-09-09T01:46:23;16.70;76.60
62259;DHT22;48241;48.824;10.102;2022-09-09T01:48:51;16.80;79.10
62259;DHT22;48241;48.824;10.102;2022-09-09T01:51:17;16.70;78.40
62259;DHT22;48241;48.824;10.102;2022-09-09T01:53:43;16.80;78.50
62259;DHT22;48241;48.824;10.102;2022-09-09T01:59:40;16.70;78.90
62259;DHT22;48241;48.824;10.102;2022-09-09T02:04:50;16.40;78.40
62259;DHT22;48241;48.824;10.102;2022-09-09T02:10:29;16.40;80.70
62259;DHT22;48241;48.824;10.102;2022-09-09T02:13:07;16.40;83.10
62259;DHT22;48241;48.824;10.102;2022-09-09T02:15:57;16.60;79.10
62259;DHT22;48241;48.824;10.102;2022-09-09T02:21:33;16.30;81.90
62259;DHT22;48241;48.824;10.102;2022-09-09T02:24:05;16.30;79.10
62259;DHT22;48241;48.824;10.102;2022-09-09T02:26:34;16.00;81.40
62259;DHT22;48241;48.824;10.102;2022-09-09T02:29:03;15.90;84.80
62259;DHT22;48241;48.824;10.102;2022-09-09T02:31:31;16.00;82.30
62259;DHT22;48241;48.824;10.102;2022-09-09T02:34:01;16.00;83.90
62259;DHT22;48241;48.824;10.102;2022-09-09T02:36:31;15.90;85.00
62259;DHT22;48241;48.824;10.102;2022-09-09T02:38:58;16.10;84.70
62259;DHT22;48241;48.824;10.102;2022-09-09T02:41:33;16.10;85.60
62259;DHT22;48241;48.824;10.102;2022-09-09T02:44:00;15.90;85.20
62259;DHT22;48241;48.824;10.102;2022-09-09T02:52:01;15.70;85.50
62259;DHT22;48241;48.824;10.102;2022-09-09T02:54:30;15.60;84.70
62259;DHT22;48241;48.824;10.102;2022-09-09T02:57:03;15.50;85.20
62259;DHT22;48241;48.824;10.102;2022-09-09T02:59:29;15.70;87.20
62259;DHT22;48241;48.824;10.102;2022-09-09T03:01:55;15.60;86.60
62259;DHT22;48241;48.824;10.102;2022-09-09T03:04:21;15.80;85.30
62259;DHT22;48241;48.824;10.102;2022-09-09T03:06:47;15.80;85.00
62259;DHT22;48241;48.824;10.102;2022-09-09T03:09:12;15.70;86.10
62259;DHT22;48241;48.824;10.102;2022-09-09T03:11:38;15.90;86.60
62259;DHT22;48241;48.824;10.102;2022-09-09T03:14:04;15.80;85.00
62259;DHT22;48241;48.824;10.102;2022-09-09T03:16:30;15.90;87.70
62259;DHT22;48241;48.824;10.102;2022-09-09T03:18:55;15.90;83.30
62259;DHT22;48241;48.824;10.102;2022-09-09T03:21:21;16.00;84.60
62259;DHT22;48241;48.824;10.102;2022-09-09T03:23:47;15.90;83.40
62259;DHT22;48241;48.824;10.102;2022-09-09T03:26:12;16.10;83.80
62259;DHT22;48241;48.824;10.102;2022-09-09T03:28:41;15.90;84.90
62259;DHT22;48241;48.824;10.102;2022-09-09T03:31:06;15.80;86.90
62259;DHT22;48241;48.824;10.102;2022-09-09T03:33:39;15.70;83.00
62259;DHT22;48241;48.824;10.102;2022-09-09T03:36:06;15.80;86.60
62259;DHT22;48241;48.824;10.102;2022-09-09T03:38:33;15.70;83.40
62259;DHT22;48241;48.824;10.102;2022-09-09T03:41:00;15.80;83.70
62259;DHT22;48241;48.824;10.102;2022-09-09T03:43:27;16.00;85.50
62259;DHT22;48241;48.824;10.102;2022-09-09T03:45:53;15.80;87.00
62259;DHT22;48241;48.824;10.102;2022-09-09T03:48:22;15.90;88.30
62259;DHT22;48241;48.824;10.102;2022-09-09T03:50:53;15.80;87.40
62259;DHT22;48241;48.824;10.102;2022-09-09T03:53:20;15.90;85.40
62259;DHT22;48241;48.824;10.102;2022-09-09T03:55:48;15.80;86.90
62259;DHT22;48241;48.824;10.102;2022-09-09T03:58:16;15.70;87.60
62259;DHT22;48241;48.824;10.102;2022-09-09T04:00:52;15.70;88.50
62259;DHT22;48241;48.824;10.102;2022-09-09T04:03:18;15.80;87.40
62259;DHT22;48241;48.824;10.102;2022-09-09T04:05:43;15.90;88.00
62259;DHT22;48241;48.824;10.102;2022-09-09T04:08:09;15.80;88.30
62259;DHT22;48241;48.824;10.102;2022-09-09T04:10:36;15.90;86.50
62259;DHT22;48241;48.824;10.102;2022-09-09T04:13:03;15.90;86.30
62259;DHT22;48241;48.824;10.102;2022-09-09T04:15:30;16.00;87.80
62259;DHT22;48241;48.824;10.102;2022-09-09T04:17:55;16.10;86.80
62259;DHT22;48241;48.824;10.102;2022-09-09T04:20:21;16.20;87.20
62259;DHT22;48241;48.824;10.102;2022-09-09T04:22:47;16.20;85.90
62259;DHT22;48241;48.824;10.102;2022-09-09T04:25:13;16.20;84.80
62259;DHT22;48241;48.824;10.102;2022-09-09T04:27:39;16.10;85.90
62259;DHT22;48241;48.824;10.102;2022-09-09T04:30:05;16.10;83.30
62259;DHT22;48241;48.824;10.102;2022-09-09T04:32:35;16.30;82.50
62259;DHT22;48241;48.824;10.102;2022-09-09T04:35:02;16.60;84.90
62259;DHT22;48241;48.824;10.102;2022-09-09T04:37:28;16.80;86.80
62259;DHT22;48241;48.824;10.102;2022-09-09T04:39:54;17.00;85.30
62259;DHT22;48241;48.824;10.102;2022-09-09T04:42:19;17.10;83.50
62259;DHT22;48241;48.824;10.102;2022-09-09T04:44:45;17.30;83.90
62259;DHT22;48241;48.824;10.102;2022-09-09T04:47:11;17.20;81.30
62259;DHT22;48241;48.824;10.102;2022-09-09T04:49:37;17.10;81.70
62259;DHT22;48241;48.824;10.102;2022-09-09T04:52:04;17.00;79.70
62259;DHT22;48241;48.824;10.102;2022-09-09T04:54:29;17.10;78.20
62259;DHT22;48241;48.824;10.102;2022-09-09T04:56:55;17.00;79.80
62259;DHT22;48241;48.824;10.102;2022-09-09T04:59:21;17.00;81.40
62259;DHT22;48241;48.824;10.102;2022-09-09T05:01:48;17.10;82.00
62259;DHT22;48241;48.824;10.102;2022-09-09T05:04:14;17.20;81.80
62259;DHT22;48241;48.824;10.102;2022-09-09T05:06:41;17.30;82.60
62259;DHT22;48241;48.824;10.102;2022-09-09T05:09:08;17.30;82.40
62259;DHT22;48241;48.824;10.102;2022-09-09T05:11:33;17.30;80.90
62259;DHT22;48241;48.824;10.102;2022-09-09T05:14:01;17.10;81.10
62259;DHT22;48241;48.824;10.102;2022-09-09T05:16:27;17.10;81.30
62259;DHT22;48241;48.824;10.102;2022-09-09T05:18:52;17.00;81.10
62259;DHT22;48241;48.824;10.102;2022-09-09T05:21:20;16.90;80.10
62259;DHT22;48241;48.824;10.102;2022-09-09T05:23:47;17.00;81.50
62259;DHT22;48241;48.824;10.102;2022-09-09T05:26:15;17.30;83.20
62259;DHT22;48241;48.824;10.102;2022-09-09T05:28:40;17.20;79.20
62259;DHT22;48241;48.824;10.102;2022-09-09T05:31:07;17.30;80.50
62259;DHT22;48241;48.824;10.102;2022-09-09T05:33:35;17.20;82.10
62259;DHT22;48241;48.824;10.102;2022-09-09T05:36:06;17.20;81.20
62259;DHT22;48241;48.824;10.102;2022-09-09T05:38:34;17.40;79.40
62259;DHT22;48241;48.824;10.102;2022-09-09T05:41:01;17.70;78.70
62259;DHT22;48241;48.824;10.102;2022-09-09T05:43:28;18.00;79.70
62259;DHT22;48241;48.824;10.102;2022-09-09T05:46:10;18.20;76.90
62259;DHT22;48241;48.824;10.102;2022-09-09T05:48:43;18.30;79.90
62259;DHT22;48241;48.824;10.102;2022-09-09T05:51:16;18.50;79.90
62259;DHT22;48241;48.824;10.102;2022-09-09T05:53:43;18.50;79.40
62259;DHT22;48241;48.824;10.102;2022-09-09T05:56:14;18.60;79.10
62259;DHT22;48241;48.824;10.102;2022-09-09T05:58:41;18.60;78.90
62259;DHT22;48241;48.824;10.102;2022-09-09T06:01:23;18.80;77.30
62259;DHT22;48241;48.824;10.102;2022-09-09T06:03:50;18.90;78.50
62259;DHT22;48241;48.824;10.102;2022-09-09T06:06:19;19.30;78.10
62259;DHT22;48241;48.824;10.102;2022-09-09T06:08:50;20.00;74.20
62259;DHT22;48241;48.824;10.102;2022-09-09T06:13:45;21.00;69.20
62259;DHT22;48241;48.824;10.102;2022-09-09T06:16:16;21.70;67.70
62259;DHT22;48241;48.824;10.102;2022-09-09T06:18:43;22.00;66.70
62259;DHT22;48241;48.824;10.102;2022-09-09T06:21:14;21.30;67.60
62259;DHT22;48241;48.824;10.102;2022-09-09T06:23:40;20.80;69.10
62259;DHT22;48241;48.824;10.102;2022-09-09T06:26:23;20.50;70.00
62259;DHT22;48241;48.824;10.102;2022-09-09T06:28:51;19.70;72.00
62259;DHT22;48241;48.824;10.102;2022-09-09T06:31:19;19.30;73.70
62259;DHT22;48241;48.824;10.102;2022-09-09T06:33:52;18.80;76.00
62259;DHT22;48241;48.824;10.102;2022-09-09T06:36:21;18.70;77.50
62259;DHT22;48241;48.824;10.102;2022-09-09T06:38:47;18.60;77.90
62259;DHT22;48241;48.824;10.102;2022-09-09T06:41:15;18.70;76.30
62259;DHT22;48241;48.824;10.102;2022-09-09T06:43:41;18.70;77.40
62259;DHT22;48241;48.824;10.102;2022-09-09T06:46:21;19.10;79.40
62259;DHT22;48241;48.824;10.102;2022-09-09T06:48:47;19.80;77.70
62259;DHT22;48241;48.824;10.102;2022-09-09T06:51:18;20.50;74.60
62259;DHT22;48241;48.824;10.102;2022-09-09T06:53:46;21.10;73.60
62259;DHT22;48241;48.824;10.102;2022-09-09T06:56:42;21.80;71.30
62259;DHT22;48241;48.824;10.102;2022-09-09T06:59:09;22.30;70.00
62259;DHT22;48241;48.824;10.102;2022-09-09T07:01:44;22.70;68.10
62259;DHT22;48241;48.824;10.102;2022-09-09T07:04:10;23.20;67.70
62259;DHT22;48241;48.824;10.102;2022-09-09T07:06:41;23.60;64.20
62259;DHT22;48241;48.824;10.102;2022-09-09T07:09:10;23.70;61.00
62259;DHT22;48241;48.824;10.102;2022-09-09T07:11:44;24.10;62.10
62259;DHT22;48241;48.824;10.102;2022-09-09T07:14:11;24.40;59.80
62259;DHT22;48241;48.824;10.102;2022-09-09T07:16:43;24.10;59.60
62259;DHT22;48241;48.824;10.102;2022-09-09T07:19:10;24.00;59.80
62259;DHT22;48241;48.824;10.102;2022-09-09T07:21:36;23.90;62.30
62259;DHT22;48241;48.824;10.102;2022-09-09T07:24:02;23.50;60.80
62259;DHT22;48241;48.824;10.102;2022-09-09T07:26:30;23.40;58.00
62259;DHT22;48241;48.824;10.102;2022-09-09T07:28:56;24.00;58.20
62259;DHT22;48241;48.824;10.102;2022-09-09T07:31:31;24.40;58.50
62259;DHT22;48241;48.824;10.102;2022-09-09T07:33:58;24.70;56.00
62259;DHT22;48241;48.824;10.102;2022-09-09T07:36:39;24.70;57.80
62259;DHT22;48241;48.824;10.102;2022-09-09T07:39:07;24.90;52.20
62259;DHT22;48241;48.824;10.102;2022-09-09T07:41:37;25.20;54.90
62259;DHT22;48241;48.824;10.102;2022-09-09T07:44:08;26.60;53.30
62259;DHT22;48241;48.824;10.102;2022-09-09T07:46:35;27.30;48.70
62259;DHT22;48241;48.824;10.102;2022-09-09T07:49:01;27.70;48.20
62259;DHT22;48241;48.824;10.102;2022-09-09T07:51:33;28.40;47.10
62259;DHT22;48241;48.824;10.102;2022-09-09T07:54:01;29.00;45.00
62259;DHT22;48241;48.824;10.102;2022-09-09T07:56:28;30.30;42.40
62259;DHT22;48241;48.824;10.102;2022-09-09T07:58:55;31.30;42.00
62259;DHT22;48241;48.824;10.102;2022-09-09T08:01:26;32.40;40.40
62259;DHT22;48241;48.824;10.102;2022-09-09T08:03:58;34.00;39.00
62259;DHT22;48241;48.824;10.102;2022-09-09T08:06:36;35.70;34.80
62259;DHT22;48241;48.824;10.102;2022-09-09T08:09:26;37.00;32.90
62259;DHT22;48241;48.824;10.102;2022-09-09T08:11:55;37.60;30.50
62259;DHT22;48241;48.824;10.102;2022-09-09T08:14:22;37.10;31.20
62259;DHT22;48241;48.824;10.102;2022-09-09T08:16:49;36.40;30.80
62259;DHT22;48241;48.824;10.102;2022-09-09T08:19:15;35.20;32.10
62259;DHT22;48241;48.824;10.102;2022-09-09T08:21:42;34.10;33.60
62259;DHT22;48241;48.824;10.102;2022-09-09T08:24:09;32.90;34.30
62259;DHT22;48241;48.824;10.102;2022-09-09T08:26:44;32.00;35.40
62259;DHT22;48241;48.824;10.102;2022-09-09T08:29:11;31.00;37.40
62259;DHT22;48241;48.824;10.102;2022-09-09T08:31:42;31.10;38.80
62259;DHT22;48241;48.824;10.102;2022-09-09T08:34:12;32.50;37.80
62259;DHT22;48241;48.824;10.102;2022-09-09T08:36:47;33.30;36.60
62259;DHT22;48241;48.824;10.102;2022-09-09T08:39:23;35.00;34.50
62259;DHT22;48241;48.824;10.102;2022-09-09T08:45:50;35.60;33.50
62259;DHT22;48241;48.824;10.102;2022-09-09T09:50:30;30.30;40.10
62259;DHT22;48241;48.824;10.102;2022-09-09T09:53:01;31.30;40.30
62259;DHT22;48241;48.824;10.102;2022-09-09T09:55:30;31.50;39.80
62259;DHT22;48241;48.824;10.102;2022-09-09T09:58:06;31.50;37.10
62259;DHT22;48241;48.824;10.102;2022-09-09T10:00:33;30.90;38.60
62259;DHT22;48241;48.824;10.102;2022-09-09T10:03:00;30.10;39.50
62259;DHT22;48241;48.824;10.102;2022-09-09T10:05:28;29.40;41.00
62259;DHT22;48241;48.824;10.102;2022-09-09T10:08:04;29.20;42.70
62259;DHT22;48241;48.824;10.102;2022-09-09T10:19:37;28.80;42.70
62259;DHT22;48241;48.824;10.102;2022-09-09T10:25:14;28.60;42.10
62259;DHT22;48241;48.824;10.102;2022-09-09T10:30:28;28.20;42.90
62259;DHT22;48241;48.824;10.102;2022-09-09T10:33:10;28.20;44.70
62259;DHT22;48241;48.824;10.102;2022-09-09T10:54:25;29.20;41.30
62259;DHT22;48241;48.824;10.102;2022-09-09T10:56:55;29.00;42.10
62259;DHT22;48241;48.824;10.102;2022-09-09T10:59:27;28.40;42.90
62259;DHT22;48241;48.824;10.102;2022-09-09T11:02:11;28.10;43.40
62259;DHT22;48241;48.824;10.102;2022-09-09T11:04:42;27.80;42.00
62259;DHT22;48241;48.824;10.102;2022-09-09T11:07:18;27.70;42.90
62259;DHT22;48241;48.824;10.102;2022-09-09T11:09:54;27.50;42.80
62259;DHT22;48241;48.824;10.102;2022-09-09T11:12:23;26.80;44.60
62259;DHT22;48241;48.824;10.102;2022-09-09T11:14:56;26.80;46.30
62259;DHT22;48241;48.824;10.102;2022-09-09T11:17:53;27.10;45.80
62259;DHT22;48241;48.824;10.102;2022-09-09T11:20:20;26.90;45.30
62259;DHT22;48241;48.824;10.102;2022-09-09T11:22:58;26.20;44.30
62259;DHT22;48241;48.824;10.102;2022-09-09T11:25:41;26.30;44.20
62259;DHT22;48241;48.824;10.102;2022-09-09T11:28:32;26.60;46.60
62259;DHT22;48241;48.824;10.102;2022-09-09T11:34:07;26.50;46.70
62259;DHT22;48241;48.824;10.102;2022-09-09T11:37:00;26.70;48.20
62259;DHT22;48241;48.824;10.102;2022-09-09T11:40:08;26.50;46.10
62259;DHT22;48241;48.824;10.102;2022-09-09T11:42:39;26.20;44.40
62259;DHT22;48241;48.824;10.102;2022-09-09T11:47:55;25.50;44.10
62259;DHT22;48241;48.824;10.102;2022-09-09T11:52:48;25.80;44.50
62259;DHT22;48241;48.824;10.102;2022-09-09T11:55:30;26.10;43.10
62259;DHT22;48241;48.824;10.102;2022-09-09T11:58:06;26.30;43.90
62259;DHT22;48241;48.824;10.102;2022-09-09T12:00:44;26.40;44.90
62259;DHT22;48241;48.824;10.102;2022-09-09T12:05:59;26.20;43.40
62259;DHT22;48241;48.824;10.102;2022-09-09T12:08:35;26.60;41.30
62259;DHT22;48241;48.824;10.102;2022-09-09T12:11:07;26.10;42.90
62259;DHT22;48241;48.824;10.102;2022-09-09T12:13:54;26.10;46.20
62259;DHT22;48241;48.824;10.102;2022-09-09T12:16:35;25.90;45.10
62259;DHT22;48241;48.824;10.102;2022-09-09T12:19:22;25.50;43.00
62259;DHT22;48241;48.824;10.102;2022-09-09T12:21:58;25.50;44.50
62259;DHT22;48241;48.824;10.102;2022-09-09T12:24:43;25.90;44.70
62259;DHT22;48241;48.824;10.102;2022-09-09T12:27:25;26.50;43.20
62259;DHT22;48241;48.824;10.102;2022-09-09T12:32:25;27.30;44.00
62259;DHT22;48241;48.824;10.102;2022-09-09T12:37:36;27.40;39.30
62259;DHT22;48241;48.824;10.102;2022-09-09T12:42:45;26.40;38.30
62259;DHT22;48241;48.824;10.102;2022-09-09T12:45:29;26.00;39.00
62259;DHT22;48241;48.824;10.102;2022-09-09T12:50:33;26.50;44.50
62259;DHT22;48241;48.824;10.102;2022-09-09T12:53:23;26.80;44.10
62259;DHT22;48241;48.824;10.102;2022-09-09T12:56:02;24.90;44.50
62259;DHT22;48241;48.824;10.102;2022-09-09T12:58:29;24.30;47.10
62259;DHT22;48241;48.824;10.102;2022-09-09T13:00:59;23.90;50.20
62259;DHT22;48241;48.824;10.102;2022-09-09T13:03:27;24.00;49.30
62259;DHT22;48241;48.824;10.102;2022-09-09T13:05:53;24.00;48.80
62259;DHT22;48241;48.824;10.102;2022-09-09T13:08:19;24.00;46.40
62259;DHT22;48241;48.824;10.102;2022-09-09T13:11:01;23.60;49.30
62259;DHT22;48241;48.824;10.102;2022-09-09T13:15:59;23.40;49.00
62259;DHT22;48241;48.824;10.102;2022-09-09T13:18:36;23.50;49.30
62259;DHT22;48241;48.824;10.102;2022-09-09T13:21:03;23.80;48.40
62259;DHT22;48241;48.824;10.102;2022-09-09T13:23:31;24.00;48.50
62259;DHT22;48241;48.824;10.102;2022-09-09T13:26:04;23.50;49.80
62259;DHT22;48241;48.824;10.102;2022-09-09T13:28:32;22.80;50.00
62259;DHT22;48241;48.824;10.102;2022-09-09T13:31:03;22.50;51.80
62259;DHT22;48241;48.824;10.102;2022-09-09T13:33:37;22.40;52.90
62259;DHT22;48241;48.824;10.102;2022-09-09T13:36:11;22.30;55.70
62259;DHT22;48241;48.824;10.102;2022-09-09T13:38:56;22.40;54.60
62259;DHT22;48241;48.824;10.102;2022-09-09T13:41:24;22.50;54.40
62259;DHT22;48241;48.824;10.102;2022-09-09T13:43:51;22.40;53.40
62259;DHT22;48241;48.824;10.102;2022-09-09T13:46:40;22.20;53.00
62259;DHT22;48241;48.824;10.102;2022-09-09T13:51:41;22.30;55.50
62259;DHT22;48241;48.824;10.102;2022-09-09T13:54:09;22.30;54.00
62259;DHT22;48241;48.824;10.102;2022-09-09T13:56:37;22.30;50.90
62259;DHT22;48241;48.824;10.102;2022-09-09T13:59:04;22.30;50.00
62259;DHT22;48241;48.824;10.102;2022-09-09T14:01:30;22.30;51.90
62259;DHT22;48241;48.824;10.102;2022-09-09T14:03:56;22.20;52.90
62259;DHT22;48241;48.824;10.102;2022-09-09T14:06:22;22.20;52.80
62259;DHT22;48241;48.824;10.102;2022-09-09T14:08:50;22.10;52.30
62259;DHT22;48241;48.824;10.102;2022-09-09T14:11:20;22.10;52.90
62259;DHT22;48241;48.824;10.102;2022-09-09T14:13:47;22.10;51.00
62259;DHT22;48241;48.824;10.102;2022-09-09T14:16:15;22.00;50.60
62259;DHT22;48241;48.824;10.102;2022-09-09T14:18:41;22.10;51.20
62259;DHT22;48241;48.824;10.102;2022-09-09T14:21:07;22.10;53.30
62259;DHT22;48241;48.824;10.102;2022-09-09T14:23:34;22.10;52.40
62259;DHT22;48241;48.824;10.102;2022-09-09T14:25:59;22.00;52.80
62259;DHT22;48241;48.824;10.102;2022-09-09T14:28:25;21.80;51.80
62259;DHT22;48241;48.824;10.102;2022-09-09T14:30:51;22.00;52.40
62259;DHT22;48241;48.824;10.102;2022-09-09T14:33:16;22.00;50.80
62259;DHT22;48241;48.824;10.102;2022-09-09T14:35:43;22.10;51.20
62259;DHT22;48241;48.824;10.102;2022-09-09T14:38:09;22.10;52.50
62259;DHT22;48241;48.824;10.102;2022-09-09T14:40:36;22.40;50.70
62259;DHT22;48241;48.824;10.102;2022-09-09T14:46:24;23.00;49.20
62259;DHT22;48241;48.824;10.102;2022-09-09T14:48:51;23.00;49.80
62259;DHT22;48241;48.824;10.102;2022-09-09T14:51:20;23.30;50.10
62259;DHT22;48241;48.824;10.102;2022-09-09T14:53:50;23.70;51.60
62259;DHT22;48241;48.824;10.102;2022-09-09T14:56:18;23.80;48.70
62259;DHT22;48241;48.824;10.102;2022-09-09T14:58:44;23.60;49.50
62259;DHT22;48241;48.824;10.102;2022-09-09T15:01:13;23.90;48.10
62259;DHT22;48241;48.824;10.102;2022-09-09T15:03:39;23.90;49.80
62259;DHT22;48241;48.824;10.102;2022-09-09T15:06:10;23.90;49.30
62259;DHT22;48241;48.824;10.102;2022-09-09T15:08:37;23.70;51.60
62259;DHT22;48241;48.824;10.102;2022-09-09T15:11:04;23.40;51.10
62259;DHT22;48241;48.824;10.102;2022-09-09T15:13:31;23.20;50.00
62259;DHT22;48241;48.824;10.102;2022-09-09T15:16:04;22.90;54.00
62259;DHT22;48241;48.824;10.102;2022-09-09T15:18:29;22.70;53.40
62259;DHT22;48241;48.824;10.102;2022-09-09T15:20:55;22.70;55.10
62259;DHT22;48241;48.824;10.102;2022-09-09T15:23:21;22.80;51.90
62259;DHT22;48241;48.824;10.102;2022-09-09T15:25:54;22.80;50.80
62259;DHT22;48241;48.824;10.102;2022-09-09T15:28:21;22.90;51.90
62259;DHT22;48241;48.824;10.102;2022-09-09T15:30:51;23.10;49.90
62259;DHT22;48241;48.824;10.102;2022-09-09T15:33:18;22.80;49.10
62259;DHT22;48241;48.824;10.102;2022-09-09T15:35:47;22.80;52.70
62259;DHT22;48241;48.824;10.102;2022-09-09T15:38:13;22.70;50.60
62259;DHT22;48241;48.824;10.102;2022-09-09T15:40:41;22.30;53.90
62259;DHT22;48241;48.824;10.102;2022-09-09T15:43:10;22.10;51.50
62259;DHT22;48241;48.824;10.102;2022-09-09T15:45:51;22.00;53.70
62259;DHT22;48241;48.824;10.102;2022-09-09T15:48:29;21.90;52.90
62259;DHT22;48241;48.824;10.102;2022-09-09T15:51:03;21.90;54.80
62259;DHT22;48241;48.824;10.102;2022-09-09T15:53:30;21.90;54.70
62259;DHT22;48241;48.824;10.102;2022-09-09T15:55:58;21.90;53.20
62259;DHT22;48241;48.824;10.102;2022-09-09T15:58:23;22.00;50.10
62259;DHT22;48241;48.824;10.102;2022-09-09T16:00:49;22.00;49.40
62259;DHT22;48241;48.824;10.102;2022-09-09T16:03:15;22.00;50.70
62259;DHT22;48241;48.824;10.102;2022-09-09T16:05:41;22.10;49.90
62259;DHT22;48241;48.824;10.102;2022-09-09T16:08:06;22.10;53.00
62259;DHT22;48241;48.824;10.102;2022-09-09T16:10:32;22.50;52.50
62259;DHT22;48241;48.824;10.102;2022-09-09T16:12:58;22.70;48.90
62259;DHT22;48241;48.824;10.102;2022-09-09T16:15:24;22.70;50.20
62259;DHT22;48241;48.824;10.102;2022-09-09T16:17:53;22.50;48.90
62259;DHT22;48241;48.824;10.102;2022-09-09T16:20:19;22.60;51.60
62259;DHT22;48241;48.824;10.102;2022-09-09T16:22:44;22.10;48.90
62259;DHT22;48241;48.824;10.102;2022-09-09T16:25:10;22.10;51.10
62259;DHT22;48241;48.824;10.102;2022-09-09T16:27:35;21.70;50.70
62259;DHT22;48241;48.824;10.102;2022-09-09T16:30:01;21.90;52.60
62259;DHT22;48241;48.824;10.102;2022-09-09T16:32:27;21.80;53.10
62259;DHT22;48241;48.824;10.102;2022-09-09T16:34:52;21.90;54.20
62259;DHT22;48241;48.824;10.102;2022-09-09T16:37:18;21.70;56.50
62259;DHT22;48241;48.824;10.102;2022-09-09T16:39:44;21.40;54.90
62259;DHT22;48241;48.824;10.102;2022-09-09T16:42:10;20.90;53.90
62259;DHT22;48241;48.824;10.102;2022-09-09T16:44:36;20.30;57.40
62259;DHT22;48241;48.824;10.102;2022-09-09T16:47:01;20.20;57.60
62259;DHT22;48241;48.824;10.102;2022-09-09T16:49:27;20.20;59.90
62259;DHT22;48241;48.824;10.102;2022-09-09T16:51:58;20.00;57.20
62259;DHT22;48241;48.824;10.102;2022-09-09T16:54:24;20.00;59.50
62259;DHT22;48241;48.824;10.102;2022-09-09T16:56:50;20.00;59.60
62259;DHT22;48241;48.824;10.102;2022-09-09T16:59:18;20.20;57.80
62259;DHT22;48241;48.824;10.102;2022-09-09T17:01:45;19.70;57.90
62259;DHT22;48241;48.824;10.102;2022-09-09T17:04:14;19.70;58.70
62259;DHT22;48241;48.824;10.102;2022-09-09T17:06:41;19.70;61.30
62259;DHT22;48241;48.824;10.102;2022-09-09T17:09:10;19.60;59.00
62259;DHT22;48241;48.824;10.102;2022-09-09T17:11:37;19.40;59.40
62259;DHT22;48241;48.824;10.102;2022-09-09T17:14:04;19.10;62.60
62259;DHT22;48241;48.824;10.102;2022-09-09T17:16:32;19.20;64.50
62259;DHT22;48241;48.824;10.102;2022-09-09T17:18:59;19.00;67.70
62259;DHT22;48241;48.824;10.102;2022-09-09T17:21:27;18.60;65.70
62259;DHT22;48241;48.824;10.102;2022-09-09T17:23:54;18.40;70.00
62259;DHT22;48241;48.824;10.102;2022-09-09T17:26:21;18.40;67.80
62259;DHT22;48241;48.824;10.102;2022-09-09T17:28:47;18.40;68.50
62259;DHT22;48241;48.824;10.102;2022-09-09T17:31:15;18.50;70.90
62259;DHT22;48241;48.824;10.102;2022-09-09T17:33:44;18.50;71.70
62259;DHT22;48241;48.824;10.102;2022-09-09T17:36:16;18.40;70.60
62259;DHT22;48241;48.824;10.102;2022-09-09T17:38:43;18.30;71.60
62259;DHT22;48241;48.824;10.102;2022-09-09T17:41:16;18.20;71.40
62259;DHT22;48241;48.824;10.102;2022-09-09T17:43:43;18.30;73.00
62259;DHT22;48241;48.824;10.102;2022-09-09T17:48:42;18.10;73.40
62259;DHT22;48241;48.824;10.102;2022-09-09T17:51:12;18.10;74.90
62259;DHT22;48241;48.824;10.102;2022-09-09T17:53:40;18.10;72.60
62259;DHT22;48241;48.824;10.102;2022-09-09T17:56:08;18.20;74.90
62259;DHT22;48241;48.824;10.102;2022-09-09T17:58:34;18.00;75.40
62259;DHT22;48241;48.824;10.102;2022-09-09T18:01:08;18.20;76.90
62259;DHT22;48241;48.824;10.102;2022-09-09T18:03:35;18.00;73.40
62259;DHT22;48241;48.824;10.102;2022-09-09T18:06:04;17.90;73.20
62259;DHT22;48241;48.824;10.102;2022-09-09T18:08:30;17.70;71.00
62259;DHT22;48241;48.824;10.102;2022-09-09T18:10:56;17.70;71.20
62259;DHT22;48241;48.824;10.102;2022-09-09T18:13:22;17.90;71.60
62259;DHT22;48241;48.824;10.102;2022-09-09T18:15:48;18.10;69.30
62259;DHT22;48241;48.824;10.102;2022-09-09T18:18:13;18.10;71.70
62259;DHT22;48241;48.824;10.102;2022-09-09T18:20:39;18.20;71.10
62259;DHT22;48241;48.824;10.102;2022-09-09T18:23:05;18.30;72.00
62259;DHT22;48241;48.824;10.102;2022-09-09T18:25:36;18.00;74.00
62259;DHT22;48241;48.824;10.102;2022-09-09T18:28:02;17.90;74.70
62259;DHT22;48241;48.824;10.102;2022-09-09T18:30:27;17.80;71.80
62259;DHT22;48241;48.824;10.102;2022-09-09T18:32:54;18.00;71.90
62259;DHT22;48241;48.824;10.102;2022-09-09T18:35:20;17.90;71.80